Flight Track Log - Related Links

Times and Time Zones

All times are in EDT time to prevent confusion due to time zone crossing. See the CSN3801 flight status page for this flight to view local times or setup timezone preferences in your user account.

Time Position Orientation Groundspeed Altitude Reporting Facility
EDT Latitude Longitude Course Direction KTS MPH feet Rate Location/Type
Thu 09:13:33 AM 23.4240 113.3230 29° Northeast 154 177 2,500  Level FlightAware ADS-B
Thu 09:13:58 AM 23.4400 113.3330 30° Northeast 186 214 3,000 1,527 Climbing FlightAware ADS-B
Thu 09:14:28 AM 23.4670 113.3500 30° Northeast 230 265 3,900 2,073 Climbing FlightAware ADS-B
Thu 09:14:53 AM 23.4910 113.3690 36° Northeast 263 303 4,900 2,400 Climbing FlightAware ADS-B
Thu 09:15:08 AM 23.4980 113.3840 63° Northeast 274 315 5,500 2,000 Climbing FlightAware ADS-B
Thu 09:15:38 AM 23.5050 113.4280 80° East 291 335 6,400 1,418 Climbing FlightAware ADS-B
Thu 09:16:03 AM 23.5130 113.4650 77° East 290 334 6,800 436 Climbing FlightAware ADS-B
Thu 09:16:33 AM 23.5320 113.5040 62° Northeast 291 335 6,800  Level FlightAware ADS-B
Thu 09:17:03 AM 23.5510 113.5430 62° Northeast 292 336 6,800 -150 Level FlightAware ADS-B
Thu 09:17:13 AM 23.5570 113.5560 63° Northeast 292 336 6,700  Descending FlightAware ADS-B
Thu 09:17:43 AM 23.5750 113.5960 64° Northeast 294 338 6,800 109 Climbing FlightAware ADS-B
Thu 09:18:08 AM 23.5900 113.6260 61° Northeast 293 337 6,800 750 Level FlightAware ADS-B
Thu 09:18:23 AM 23.6000 113.6480 64° Northeast 295 339 7,300 2,533 Climbing FlightAware ADS-B
Thu 09:18:53 AM 23.6170 113.6900 66° East 300 345 8,700 2,700 Climbing FlightAware ADS-B
Thu 09:19:03 AM 23.6230 113.7050 66° East 308 354 9,100 2,400 Climbing FlightAware ADS-B
Thu 09:19:48 AM 23.6460 113.7730 70° East 344 396 10,900 2,467 Climbing FlightAware ADS-B
Thu 09:20:33 AM 23.6750 113.8460 67° East 361 415 12,800 1,341 Climbing FlightAware ADS-B
Thu 09:21:13 AM 23.7060 113.9080 61° Northeast 363 418 12,800  Level FlightAware ADS-B
Thu 09:22:08 AM 23.7460 113.9880 61° Northeast 365 420 12,800  Level FlightAware ADS-B
Thu 09:22:48 AM 23.7740 114.0430 61° Northeast 365 420 12,800  Level FlightAware ADS-B
Thu 09:23:33 AM 23.8200 114.1370 62° Northeast 363 418 12,800 212 Level FlightAware ADS-B
Thu 09:24:13 AM 23.8510 114.2020 62° Northeast 363 418 13,100 1,553 Climbing FlightAware ADS-B
Thu 09:24:58 AM 23.8820 114.2770 66° East 378 435 15,000 2,612 Climbing FlightAware ADS-B
Thu 09:25:38 AM 23.9110 114.3490 66° East 386 444 16,800 2,400 Climbing FlightAware ADS-B
Thu 09:26:18 AM 23.9390 114.4230 67° East 403 464 18,200 1,906 Climbing FlightAware ADS-B
Thu 09:27:03 AM 23.9740 114.5100 66° East 427 491 19,500 2,047 Climbing FlightAware ADS-B
Thu 09:27:43 AM 24.0090 114.5930 65° Northeast 432 497 21,100 1,886 Climbing FlightAware ADS-B
Thu 09:28:13 AM 24.0420 114.6460 56° Northeast 437 503 21,700 1,714 Climbing FlightAware ADS-B
Thu 09:28:53 AM 24.1050 114.7020 39° Northeast 431 496 23,100 1,906 Climbing FlightAware ADS-B
Thu 09:29:38 AM 24.1730 114.7580 37° Northeast 432 497 24,400 960 Climbing FlightAware ADS-B
Thu 09:30:33 AM 24.2610 114.8310 37° Northeast 446 513 24,700 189 Climbing FlightAware ADS-B
Thu 09:31:13 AM 24.3170 114.8770 37° Northeast 446 513 24,700  Level FlightAware ADS-B
Thu 09:31:53 AM 24.3730 114.9240 37° Northeast 446 513 24,700  Level FlightAware ADS-B
Thu 09:32:33 AM 24.4290 114.9700 37° Northeast 446 513 24,700  Level FlightAware ADS-B
Thu 09:33:13 AM 24.4850 115.0160 37° Northeast 446 513 24,700  Level FlightAware ADS-B
Thu 09:34:03 AM 24.5550 115.0740 37° Northeast 446 513 24,700  Level FlightAware ADS-B
Thu 09:36:00 AM 24.7145 115.2151 39° Northeast  Level Estimated
Thu 09:37:00 AM 24.7962 115.2876 39° Northeast  Level Estimated
Thu 09:38:00 AM 24.8779 115.3602 39° Northeast  Level Estimated
Thu 09:39:00 AM 24.9595 115.4328 39° Northeast  Level Estimated
Thu 09:40:00 AM 25.0412 115.5056 39° Northeast  Level Estimated
Thu 09:41:00 AM 25.1227 115.5785 39° Northeast  Level Estimated
Thu 09:42:00 AM 25.2043 115.6515 39° Northeast  Level Estimated
Thu 09:43:00 AM 25.2858 115.7245 39° Northeast  Level Estimated
Thu 09:44:00 AM 25.3673 115.7977 39° Northeast  Level Estimated
Thu 09:45:00 AM 25.4487 115.8710 39° Northeast  Level Estimated
Thu 09:46:00 AM 25.5301 115.9443 39° Northeast  Level Estimated
Thu 09:47:00 AM 25.6115 116.0178 39° Northeast  Level Estimated
Thu 09:48:00 AM 25.6928 116.0914 39° Northeast  Level Estimated
Thu 09:49:00 AM 25.7741 116.1650 39° Northeast  Level Estimated
Thu 09:50:00 AM 25.8554 116.2388 39° Northeast  Level Estimated
Thu 09:51:00 AM 25.9366 116.3127 39° Northeast  Level Estimated
Thu 09:52:00 AM 26.0178 116.3867 39° Northeast  Level Estimated
Thu 09:53:00 AM 26.0989 116.4607 39° Northeast  Level Estimated
Thu 09:54:00 AM 26.1800 116.5349 39° Northeast  Level Estimated
Thu 09:55:00 AM 26.2611 116.6092 39° Northeast  Level Estimated
Thu 09:56:00 AM 26.3421 116.6836 39° Northeast  Level Estimated
Thu 09:57:00 AM 26.4231 116.7581 39° Northeast  Level Estimated
Thu 09:58:00 AM 26.5041 116.8326 40° Northeast  Level Estimated
Thu 09:59:00 AM 26.5850 116.9073 40° Northeast  Level Estimated
Thu 10:00:00 AM 26.6658 116.9821 40° Northeast  Level Estimated
Thu 10:01:00 AM 26.7467 117.0571 40° Northeast  Level Estimated
Thu 10:02:00 AM 26.8275 117.1321 40° Northeast  Level Estimated
Thu 10:03:00 AM 26.9083 117.2072 40° Northeast  Level Estimated
Thu 10:04:00 AM 26.9890 117.2824 40° Northeast  Level Estimated
Thu 10:05:00 AM 27.0697 117.3578 40° Northeast  Level Estimated
Thu 10:06:00 AM 27.1503 117.4332 40° Northeast  Level Estimated
Thu 10:07:00 AM 27.2309 117.5088 40° Northeast  Level Estimated
Thu 10:08:00 AM 27.3114 117.5844 40° Northeast  Level Estimated
Thu 10:09:00 AM 27.3920 117.6602 40° Northeast  Level Estimated
Thu 10:10:00 AM 27.4724 117.7361 40° Northeast  Level Estimated
Thu 10:11:00 AM 27.5529 117.8121 40° Northeast  Level Estimated
Thu 10:12:00 AM 27.6333 117.8882 40° Northeast  Level Estimated
Thu 10:13:00 AM 27.7136 117.9644 40° Northeast  Level Estimated
Thu 10:14:00 AM 27.7939 118.0407 40° Northeast  Level Estimated
Thu 10:15:00 AM 27.8742 118.1172 40° Northeast  Level Estimated
Thu 10:16:00 AM 27.9544 118.1937 40° Northeast  Level Estimated
Thu 10:17:00 AM 28.0346 118.2704 40° Northeast  Level Estimated
Thu 10:18:00 AM 28.1147 118.3472 40° Northeast  Level Estimated
Thu 10:19:00 AM 28.1948 118.4241 40° Northeast  Level Estimated
Thu 10:20:00 AM 28.2749 118.5011 40° Northeast  Level Estimated
Thu 10:21:00 AM 28.3549 118.5782 40° Northeast  Level Estimated
Thu 10:22:00 AM 28.4349 118.6555 40° Northeast  Level Estimated
Thu 10:23:00 AM 28.5148 118.7328 40° Northeast  Level Estimated
Thu 10:24:00 AM 28.5947 118.8103 40° Northeast  Level Estimated
Thu 10:25:00 AM 28.6745 118.8879 40° Northeast  Level Estimated
Thu 10:26:00 AM 28.7543 118.9657 40° Northeast  Level Estimated
Thu 10:27:00 AM 28.8340 119.0435 41° Northeast  Level Estimated
Thu 10:28:00 AM 28.9137 119.1215 41° Northeast  Level Estimated
Thu 10:29:00 AM 28.9934 119.1995 41° Northeast  Level Estimated
Thu 10:30:00 AM 29.0730 119.2777 41° Northeast  Level Estimated
Thu 10:31:00 AM 29.1526 119.3560 41° Northeast  Level Estimated
Thu 10:32:00 AM 29.2321 119.4345 41° Northeast  Level Estimated
Thu 10:33:00 AM 29.3116 119.5130 41° Northeast  Level Estimated
Thu 10:34:00 AM 29.3910 119.5917 41° Northeast  Level Estimated
Thu 10:35:00 AM 29.4704 119.6705 41° Northeast  Level Estimated
Thu 10:36:00 AM 29.5497 119.7495 41° Northeast  Level Estimated
Thu 10:37:00 AM 29.6290 119.8285 41° Northeast  Level Estimated
Thu 10:38:00 AM 29.7083 119.9077 41° Northeast  Level Estimated
Thu 10:39:00 AM 29.7875 119.9870 41° Northeast  Level Estimated
Thu 10:40:00 AM 29.8666 120.0664 41° Northeast  Level Estimated
Thu 10:41:00 AM 29.9457 120.1460 41° Northeast  Level Estimated
Thu 10:42:00 AM 30.0248 120.2257 41° Northeast  Level Estimated
Thu 10:43:00 AM 30.1038 120.3055 41° Northeast  Level Estimated
Thu 10:44:00 AM 30.1827 120.3854 41° Northeast  Level Estimated
Thu 10:45:00 AM 30.2283 120.4317 41° Northeast  Level Estimated
Thu 10:46:00 AM 30.2283 120.4317 319° Northwest  Level Estimated
Thu 10:47:00 AM 30.2283 120.4317 319° Northwest  Level Estimated
Thu 10:48:00 AM 30.2283 120.4317 319° Northwest  Level Estimated
Thu 10:49:00 AM 30.2283 120.4317 319° Northwest  Level Estimated
Thu 10:50:00 AM 30.2283 120.4317 319° Northwest  Level Estimated
Thu 10:51:00 AM 30.2283 120.4317 319° Northwest  Level Estimated
Thu 10:52:00 AM 30.2283 120.4317 319° Northwest  Level Estimated
Thu 10:53:00 AM 30.2283 120.4317 319° Northwest  Level Estimated
Thu 10:54:00 AM 30.2283 120.4317 319° Northwest  Level Estimated
Thu 10:55:00 AM 30.2283 120.4317 319° Northwest  Level Estimated
Thu 10:56:00 AM 30.2283 120.4317 319° Northwest  Level Estimated
Thu 10:57:00 AM 30.2283 120.4317 319° Northwest  Level Estimated
Thu 10:58:00 AM 30.2283 120.4317 319° Northwest  Level Estimated

Login

Don't have an account? Register now (free) for customized features, flight alerts, and more!